sensor_id;sensor_type;location;lat;lon;timestamp;P1;durP1;ratioP1;P2;durP2;ratioP2
359;SDS011;168;48.872;9.226;2023-03-08T00:02:13;7.80;;;6.07;;
359;SDS011;168;48.872;9.226;2023-03-08T00:04:41;8.27;;;6.43;;
359;SDS011;168;48.872;9.226;2023-03-08T00:07:09;8.37;;;6.50;;
359;SDS011;168;48.872;9.226;2023-03-08T00:09:37;10.27;;;6.93;;
359;SDS011;168;48.872;9.226;2023-03-08T00:12:04;8.03;;;6.63;;
359;SDS011;168;48.872;9.226;2023-03-08T00:14:33;6.93;;;6.17;;
359;SDS011;168;48.872;9.226;2023-03-08T00:17:01;7.23;;;5.93;;
359;SDS011;168;48.872;9.226;2023-03-08T00:19:31;7.27;;;6.33;;
359;SDS011;168;48.872;9.226;2023-03-08T00:21:59;7.60;;;6.63;;
359;SDS011;168;48.872;9.226;2023-03-08T00:24:28;8.13;;;6.67;;
359;SDS011;168;48.872;9.226;2023-03-08T00:26:56;6.70;;;6.00;;
359;SDS011;168;48.872;9.226;2023-03-08T00:29:24;6.63;;;5.97;;
359;SDS011;168;48.872;9.226;2023-03-08T00:31:52;11.70;;;7.03;;
359;SDS011;168;48.872;9.226;2023-03-08T00:34:20;8.73;;;7.10;;
359;SDS011;168;48.872;9.226;2023-03-08T00:36:47;7.53;;;6.30;;
359;SDS011;168;48.872;9.226;2023-03-08T00:39:15;7.80;;;6.40;;
359;SDS011;168;48.872;9.226;2023-03-08T00:41:44;8.97;;;6.63;;
359;SDS011;168;48.872;9.226;2023-03-08T00:44:11;6.73;;;5.70;;
359;SDS011;168;48.872;9.226;2023-03-08T00:46:39;9.13;;;6.70;;
359;SDS011;168;48.872;9.226;2023-03-08T00:49:06;8.23;;;7.13;;
359;SDS011;168;48.872;9.226;2023-03-08T00:51:34;8.50;;;6.60;;
359;SDS011;168;48.872;9.226;2023-03-08T00:54:02;9.50;;;7.50;;
359;SDS011;168;48.872;9.226;2023-03-08T00:56:30;11.77;;;7.57;;
359;SDS011;168;48.872;9.226;2023-03-08T00:58:59;9.50;;;7.80;;
359;SDS011;168;48.872;9.226;2023-03-08T01:01:26;8.93;;;7.20;;
359;SDS011;168;48.872;9.226;2023-03-08T01:03:53;11.13;;;8.13;;
359;SDS011;168;48.872;9.226;2023-03-08T01:06:21;9.60;;;7.70;;
359;SDS011;168;48.872;9.226;2023-03-08T01:08:48;9.00;;;7.70;;
359;SDS011;168;48.872;9.226;2023-03-08T01:11:16;9.97;;;8.97;;
359;SDS011;168;48.872;9.226;2023-03-08T01:13:46;9.03;;;7.60;;
359;SDS011;168;48.872;9.226;2023-03-08T01:16:17;9.23;;;7.77;;
359;SDS011;168;48.872;9.226;2023-03-08T01:18:45;8.13;;;7.20;;
359;SDS011;168;48.872;9.226;2023-03-08T01:21:13;9.87;;;7.50;;
359;SDS011;168;48.872;9.226;2023-03-08T01:23:40;10.40;;;8.30;;
359;SDS011;168;48.872;9.226;2023-03-08T01:26:10;9.40;;;8.33;;
359;SDS011;168;48.872;9.226;2023-03-08T01:28:42;12.73;;;8.70;;
359;SDS011;168;48.872;9.226;2023-03-08T01:31:10;9.57;;;7.97;;
359;SDS011;168;48.872;9.226;2023-03-08T01:33:40;11.53;;;8.60;;
359;SDS011;168;48.872;9.226;2023-03-08T01:36:09;9.37;;;8.00;;
359;SDS011;168;48.872;9.226;2023-03-08T01:38:39;12.20;;;9.40;;
359;SDS011;168;48.872;9.226;2023-03-08T01:41:11;10.73;;;9.20;;
359;SDS011;168;48.872;9.226;2023-03-08T01:43:42;9.13;;;8.10;;
359;SDS011;168;48.872;9.226;2023-03-08T01:46:14;11.00;;;8.63;;
359;SDS011;168;48.872;9.226;2023-03-08T01:48:46;12.40;;;9.33;;
359;SDS011;168;48.872;9.226;2023-03-08T01:51:18;10.97;;;8.93;;
359;SDS011;168;48.872;9.226;2023-03-08T01:53:50;13.73;;;9.80;;
359;SDS011;168;48.872;9.226;2023-03-08T01:56:19;10.20;;;8.50;;
359;SDS011;168;48.872;9.226;2023-03-08T01:58:55;12.83;;;9.70;;
359;SDS011;168;48.872;9.226;2023-03-08T02:01:23;14.10;;;9.47;;
359;SDS011;168;48.872;9.226;2023-03-08T02:03:52;11.40;;;10.13;;
359;SDS011;168;48.872;9.226;2023-03-08T02:06:20;11.20;;;9.23;;
359;SDS011;168;48.872;9.226;2023-03-08T02:08:48;14.30;;;9.40;;
359;SDS011;168;48.872;9.226;2023-03-08T02:11:16;11.17;;;9.50;;
359;SDS011;168;48.872;9.226;2023-03-08T02:13:46;12.23;;;9.47;;
359;SDS011;168;48.872;9.226;2023-03-08T02:16:15;13.83;;;9.57;;
359;SDS011;168;48.872;9.226;2023-03-08T02:18:49;13.17;;;10.60;;
359;SDS011;168;48.872;9.226;2023-03-08T02:21:19;10.80;;;9.70;;
359;SDS011;168;48.872;9.226;2023-03-08T02:23:48;13.80;;;10.30;;
359;SDS011;168;48.872;9.226;2023-03-08T02:26:16;13.17;;;10.90;;
359;SDS011;168;48.872;9.226;2023-03-08T02:28:44;13.17;;;10.10;;
359;SDS011;168;48.872;9.226;2023-03-08T02:31:12;12.60;;;9.50;;
359;SDS011;168;48.872;9.226;2023-03-08T02:33:40;13.10;;;9.80;;
359;SDS011;168;48.872;9.226;2023-03-08T02:36:08;11.93;;;9.57;;
359;SDS011;168;48.872;9.226;2023-03-08T02:38:36;12.40;;;9.17;;
359;SDS011;168;48.872;9.226;2023-03-08T02:41:04;12.93;;;10.57;;
359;SDS011;168;48.872;9.226;2023-03-08T02:43:32;11.87;;;9.80;;
359;SDS011;168;48.872;9.226;2023-03-08T02:46:00;12.17;;;9.60;;
359;SDS011;168;48.872;9.226;2023-03-08T02:48:28;13.77;;;10.13;;
359;SDS011;168;48.872;9.226;2023-03-08T02:50:55;12.03;;;9.37;;
359;SDS011;168;48.872;9.226;2023-03-08T02:53:23;14.03;;;9.60;;
359;SDS011;168;48.872;9.226;2023-03-08T02:55:50;11.37;;;9.10;;
359;SDS011;168;48.872;9.226;2023-03-08T02:58:19;13.17;;;8.93;;
359;SDS011;168;48.872;9.226;2023-03-08T03:00:47;10.67;;;9.27;;
359;SDS011;168;48.872;9.226;2023-03-08T03:03:15;12.50;;;10.13;;
359;SDS011;168;48.872;9.226;2023-03-08T03:05:43;14.33;;;10.37;;
359;SDS011;168;48.872;9.226;2023-03-08T03:08:11;12.40;;;9.50;;
359;SDS011;168;48.872;9.226;2023-03-08T03:10:38;11.00;;;9.13;;
359;SDS011;168;48.872;9.226;2023-03-08T03:13:06;10.10;;;8.70;;
359;SDS011;168;48.872;9.226;2023-03-08T03:15:37;10.53;;;9.30;;
359;SDS011;168;48.872;9.226;2023-03-08T03:18:04;12.20;;;9.03;;
359;SDS011;168;48.872;9.226;2023-03-08T03:20:32;13.30;;;9.53;;
359;SDS011;168;48.872;9.226;2023-03-08T03:23:00;11.40;;;9.00;;
359;SDS011;168;48.872;9.226;2023-03-08T03:25:27;11.47;;;9.03;;
359;SDS011;168;48.872;9.226;2023-03-08T03:27:55;11.17;;;9.03;;
359;SDS011;168;48.872;9.226;2023-03-08T03:30:23;12.17;;;9.30;;
359;SDS011;168;48.872;9.226;2023-03-08T03:32:52;13.30;;;9.70;;
359;SDS011;168;48.872;9.226;2023-03-08T03:35:19;12.53;;;9.63;;
359;SDS011;168;48.872;9.226;2023-03-08T03:37:47;11.33;;;9.30;;
359;SDS011;168;48.872;9.226;2023-03-08T03:40:14;13.70;;;11.17;;
359;SDS011;168;48.872;9.226;2023-03-08T03:42:42;12.77;;;10.07;;
359;SDS011;168;48.872;9.226;2023-03-08T03:45:10;12.60;;;8.90;;
359;SDS011;168;48.872;9.226;2023-03-08T03:47:37;13.40;;;8.73;;
359;SDS011;168;48.872;9.226;2023-03-08T03:50:06;10.27;;;9.27;;
359;SDS011;168;48.872;9.226;2023-03-08T03:52:34;11.57;;;9.80;;
359;SDS011;168;48.872;9.226;2023-03-08T03:55:02;9.37;;;8.33;;
359;SDS011;168;48.872;9.226;2023-03-08T03:57:30;13.50;;;9.50;;
359;SDS011;168;48.872;9.226;2023-03-08T03:59:57;10.40;;;9.30;;
359;SDS011;168;48.872;9.226;2023-03-08T04:02:25;12.50;;;9.43;;
359;SDS011;168;48.872;9.226;2023-03-08T04:04:53;10.20;;;8.87;;
359;SDS011;168;48.872;9.226;2023-03-08T04:07:22;10.87;;;9.20;;
359;SDS011;168;48.872;9.226;2023-03-08T04:09:50;10.73;;;8.97;;
359;SDS011;168;48.872;9.226;2023-03-08T04:12:17;14.60;;;10.00;;
359;SDS011;168;48.872;9.226;2023-03-08T04:14:44;14.03;;;9.93;;
359;SDS011;168;48.872;9.226;2023-03-08T04:17:12;10.27;;;9.00;;
359;SDS011;168;48.872;9.226;2023-03-08T04:19:39;13.30;;;9.63;;
359;SDS011;168;48.872;9.226;2023-03-08T04:22:06;10.13;;;8.40;;
359;SDS011;168;48.872;9.226;2023-03-08T04:24:35;13.63;;;9.20;;
359;SDS011;168;48.872;9.226;2023-03-08T04:27:02;14.90;;;10.17;;
359;SDS011;168;48.872;9.226;2023-03-08T04:29:30;13.17;;;8.80;;
359;SDS011;168;48.872;9.226;2023-03-08T04:31:57;11.07;;;9.67;;
359;SDS011;168;48.872;9.226;2023-03-08T04:34:25;12.90;;;10.10;;
359;SDS011;168;48.872;9.226;2023-03-08T04:36:53;11.50;;;9.60;;
359;SDS011;168;48.872;9.226;2023-03-08T04:39:20;12.33;;;8.80;;
359;SDS011;168;48.872;9.226;2023-03-08T04:41:49;11.40;;;9.20;;
359;SDS011;168;48.872;9.226;2023-03-08T04:44:16;13.87;;;9.90;;
359;SDS011;168;48.872;9.226;2023-03-08T04:46:44;10.57;;;8.90;;
359;SDS011;168;48.872;9.226;2023-03-08T04:49:11;10.37;;;9.27;;
359;SDS011;168;48.872;9.226;2023-03-08T04:51:38;14.07;;;10.27;;
359;SDS011;168;48.872;9.226;2023-03-08T04:54:06;10.80;;;9.63;;
359;SDS011;168;48.872;9.226;2023-03-08T04:56:33;11.70;;;9.67;;
359;SDS011;168;48.872;9.226;2023-03-08T04:59:02;11.80;;;8.77;;
359;SDS011;168;48.872;9.226;2023-03-08T05:01:29;12.30;;;10.93;;
359;SDS011;168;48.872;9.226;2023-03-08T05:03:57;14.63;;;11.17;;
359;SDS011;168;48.872;9.226;2023-03-08T05:06:25;9.53;;;8.40;;
359;SDS011;168;48.872;9.226;2023-03-08T05:08:53;9.60;;;8.23;;
359;SDS011;168;48.872;9.226;2023-03-08T05:11:22;11.27;;;8.77;;
359;SDS011;168;48.872;9.226;2023-03-08T05:13:51;14.53;;;9.10;;
359;SDS011;168;48.872;9.226;2023-03-08T05:16:20;14.60;;;9.37;;
359;SDS011;168;48.872;9.226;2023-03-08T05:18:48;12.30;;;8.87;;
359;SDS011;168;48.872;9.226;2023-03-08T05:21:16;12.53;;;10.30;;
359;SDS011;168;48.872;9.226;2023-03-08T05:23:46;10.70;;;9.43;;
359;SDS011;168;48.872;9.226;2023-03-08T05:26:13;10.90;;;9.33;;
359;SDS011;168;48.872;9.226;2023-03-08T05:28:42;12.00;;;10.13;;
359;SDS011;168;48.872;9.226;2023-03-08T05:31:10;15.00;;;9.43;;
359;SDS011;168;48.872;9.226;2023-03-08T05:33:40;11.90;;;9.43;;
359;SDS011;168;48.872;9.226;2023-03-08T05:36:11;11.70;;;8.90;;
359;SDS011;168;48.872;9.226;2023-03-08T05:38:39;9.80;;;8.77;;
359;SDS011;168;48.872;9.226;2023-03-08T05:41:08;13.03;;;9.63;;
359;SDS011;168;48.872;9.226;2023-03-08T05:43:38;12.50;;;9.27;;
359;SDS011;168;48.872;9.226;2023-03-08T05:46:06;13.07;;;10.20;;
359;SDS011;168;48.872;9.226;2023-03-08T05:48:36;12.23;;;9.47;;
359;SDS011;168;48.872;9.226;2023-03-08T05:51:06;13.23;;;10.30;;
359;SDS011;168;48.872;9.226;2023-03-08T05:53:34;12.77;;;10.17;;
359;SDS011;168;48.872;9.226;2023-03-08T05:56:06;13.80;;;10.40;;
359;SDS011;168;48.872;9.226;2023-03-08T05:58:35;11.40;;;9.37;;
359;SDS011;168;48.872;9.226;2023-03-08T06:01:09;12.37;;;10.17;;
359;SDS011;168;48.872;9.226;2023-03-08T06:03:38;12.83;;;9.70;;
359;SDS011;168;48.872;9.226;2023-03-08T06:06:07;12.73;;;10.60;;
359;SDS011;168;48.872;9.226;2023-03-08T06:08:35;12.93;;;9.60;;
359;SDS011;168;48.872;9.226;2023-03-08T06:11:02;14.00;;;9.90;;
359;SDS011;168;48.872;9.226;2023-03-08T06:13:30;13.33;;;10.73;;
359;SDS011;168;48.872;9.226;2023-03-08T06:15:58;11.87;;;10.07;;
359;SDS011;168;48.872;9.226;2023-03-08T06:18:26;11.90;;;10.40;;
359;SDS011;168;48.872;9.226;2023-03-08T06:20:54;12.70;;;9.97;;
359;SDS011;168;48.872;9.226;2023-03-08T06:23:24;14.73;;;11.17;;
359;SDS011;168;48.872;9.226;2023-03-08T06:25:52;11.87;;;9.87;;
359;SDS011;168;48.872;9.226;2023-03-08T06:28:20;11.63;;;9.27;;
359;SDS011;168;48.872;9.226;2023-03-08T06:30:48;12.60;;;10.30;;
359;SDS011;168;48.872;9.226;2023-03-08T06:33:16;13.60;;;10.43;;
359;SDS011;168;48.872;9.226;2023-03-08T06:35:53;11.53;;;10.30;;
359;SDS011;168;48.872;9.226;2023-03-08T06:38:22;13.90;;;10.37;;
359;SDS011;168;48.872;9.226;2023-03-08T06:40:52;15.70;;;11.27;;
359;SDS011;168;48.872;9.226;2023-03-08T06:43:19;16.57;;;10.50;;
359;SDS011;168;48.872;9.226;2023-03-08T06:45:47;14.63;;;11.47;;
359;SDS011;168;48.872;9.226;2023-03-08T06:48:14;12.53;;;10.30;;
359;SDS011;168;48.872;9.226;2023-03-08T06:50:42;13.40;;;10.60;;
359;SDS011;168;48.872;9.226;2023-03-08T06:53:09;13.50;;;10.70;;
359;SDS011;168;48.872;9.226;2023-03-08T06:55:39;12.07;;;10.87;;
359;SDS011;168;48.872;9.226;2023-03-08T06:58:07;15.10;;;11.80;;
359;SDS011;168;48.872;9.226;2023-03-08T07:00:35;17.10;;;12.20;;
359;SDS011;168;48.872;9.226;2023-03-08T07:03:02;17.37;;;12.53;;
359;SDS011;168;48.872;9.226;2023-03-08T07:05:30;14.27;;;11.53;;
359;SDS011;168;48.872;9.226;2023-03-08T07:07:57;12.90;;;11.03;;
359;SDS011;168;48.872;9.226;2023-03-08T07:10:25;14.30;;;11.80;;
359;SDS011;168;48.872;9.226;2023-03-08T07:12:53;14.00;;;11.67;;
359;SDS011;168;48.872;9.226;2023-03-08T07:15:21;14.70;;;12.43;;
359;SDS011;168;48.872;9.226;2023-03-08T07:17:50;14.53;;;11.13;;
359;SDS011;168;48.872;9.226;2023-03-08T07:20:20;13.10;;;10.40;;
359;SDS011;168;48.872;9.226;2023-03-08T07:22:49;14.13;;;10.90;;
359;SDS011;168;48.872;9.226;2023-03-08T07:25:17;13.60;;;10.63;;
359;SDS011;168;48.872;9.226;2023-03-08T07:27:45;16.23;;;11.87;;
359;SDS011;168;48.872;9.226;2023-03-08T07:30:14;16.83;;;11.57;;
359;SDS011;168;48.872;9.226;2023-03-08T07:32:43;13.87;;;11.40;;
359;SDS011;168;48.872;9.226;2023-03-08T07:35:11;15.80;;;12.27;;
359;SDS011;168;48.872;9.226;2023-03-08T07:37:39;15.10;;;11.93;;
359;SDS011;168;48.872;9.226;2023-03-08T07:40:10;15.97;;;11.30;;
359;SDS011;168;48.872;9.226;2023-03-08T07:42:38;14.07;;;11.37;;
359;SDS011;168;48.872;9.226;2023-03-08T07:45:05;11.93;;;10.17;;
359;SDS011;168;48.872;9.226;2023-03-08T07:47:35;14.30;;;10.97;;
359;SDS011;168;48.872;9.226;2023-03-08T07:50:02;13.77;;;11.03;;
359;SDS011;168;48.872;9.226;2023-03-08T07:52:30;13.33;;;11.20;;
359;SDS011;168;48.872;9.226;2023-03-08T07:54:57;18.40;;;12.60;;
359;SDS011;168;48.872;9.226;2023-03-08T07:57:26;12.67;;;11.23;;
359;SDS011;168;48.872;9.226;2023-03-08T07:59:54;15.07;;;11.73;;
359;SDS011;168;48.872;9.226;2023-03-08T08:02:21;15.50;;;11.87;;
359;SDS011;168;48.872;9.226;2023-03-08T08:04:50;13.83;;;12.30;;
359;SDS011;168;48.872;9.226;2023-03-08T08:07:17;12.50;;;10.80;;
359;SDS011;168;48.872;9.226;2023-03-08T08:09:44;14.07;;;12.20;;
359;SDS011;168;48.872;9.226;2023-03-08T08:12:12;14.03;;;11.90;;
359;SDS011;168;48.872;9.226;2023-03-08T08:14:39;13.47;;;11.60;;
359;SDS011;168;48.872;9.226;2023-03-08T08:17:07;16.27;;;12.83;;
359;SDS011;168;48.872;9.226;2023-03-08T08:19:34;17.63;;;11.73;;
359;SDS011;168;48.872;9.226;2023-03-08T08:22:03;16.13;;;12.00;;
359;SDS011;168;48.872;9.226;2023-03-08T08:24:31;15.27;;;12.50;;
359;SDS011;168;48.872;9.226;2023-03-08T08:26:58;14.73;;;12.10;;
359;SDS011;168;48.872;9.226;2023-03-08T08:29:26;15.33;;;11.30;;
359;SDS011;168;48.872;9.226;2023-03-08T08:31:53;14.00;;;11.13;;
359;SDS011;168;48.872;9.226;2023-03-08T08:34:21;13.90;;;10.57;;
359;SDS011;168;48.872;9.226;2023-03-08T08:36:49;15.00;;;10.87;;
359;SDS011;168;48.872;9.226;2023-03-08T08:39:18;16.20;;;11.57;;
359;SDS011;168;48.872;9.226;2023-03-08T08:41:47;16.47;;;11.27;;
359;SDS011;168;48.872;9.226;2023-03-08T08:44:14;14.63;;;11.20;;
359;SDS011;168;48.872;9.226;2023-03-08T08:46:41;14.77;;;10.90;;
359;SDS011;168;48.872;9.226;2023-03-08T08:49:09;15.90;;;11.90;;
359;SDS011;168;48.872;9.226;2023-03-08T08:51:36;14.30;;;12.00;;
359;SDS011;168;48.872;9.226;2023-03-08T08:54:04;13.67;;;11.00;;
359;SDS011;168;48.872;9.226;2023-03-08T08:56:32;15.80;;;11.83;;
359;SDS011;168;48.872;9.226;2023-03-08T08:59:07;13.40;;;11.27;;
359;SDS011;168;48.872;9.226;2023-03-08T09:01:36;14.33;;;11.53;;
359;SDS011;168;48.872;9.226;2023-03-08T09:04:08;14.10;;;10.07;;
359;SDS011;168;48.872;9.226;2023-03-08T09:06:35;18.67;;;12.37;;
359;SDS011;168;48.872;9.226;2023-03-08T09:09:03;15.30;;;11.47;;
359;SDS011;168;48.872;9.226;2023-03-08T09:11:32;15.20;;;11.90;;
359;SDS011;168;48.872;9.226;2023-03-08T09:14:00;11.53;;;10.30;;
359;SDS011;168;48.872;9.226;2023-03-08T09:16:28;14.30;;;11.27;;
359;SDS011;168;48.872;9.226;2023-03-08T09:18:57;14.03;;;11.33;;
359;SDS011;168;48.872;9.226;2023-03-08T09:21:26;13.60;;;11.50;;
359;SDS011;168;48.872;9.226;2023-03-08T09:23:54;13.00;;;11.37;;
359;SDS011;168;48.872;9.226;2023-03-08T09:26:24;14.60;;;11.30;;
359;SDS011;168;48.872;9.226;2023-03-08T09:28:53;12.73;;;10.73;;
359;SDS011;168;48.872;9.226;2023-03-08T09:31:21;15.37;;;13.13;;
359;SDS011;168;48.872;9.226;2023-03-08T09:33:49;15.10;;;11.80;;
359;SDS011;168;48.872;9.226;2023-03-08T09:36:17;17.33;;;12.63;;
359;SDS011;168;48.872;9.226;2023-03-08T09:38:45;14.13;;;11.17;;
359;SDS011;168;48.872;9.226;2023-03-08T09:41:23;15.30;;;11.67;;
359;SDS011;168;48.872;9.226;2023-03-08T09:44:10;13.73;;;12.40;;
359;SDS011;168;48.872;9.226;2023-03-08T09:46:43;16.70;;;13.13;;
359;SDS011;168;48.872;9.226;2023-03-08T09:49:15;15.03;;;12.80;;
359;SDS011;168;48.872;9.226;2023-03-08T09:51:46;16.03;;;13.50;;
359;SDS011;168;48.872;9.226;2023-03-08T09:54:17;17.47;;;13.80;;
359;SDS011;168;48.872;9.226;2023-03-08T09:56:48;16.57;;;14.47;;
359;SDS011;168;48.872;9.226;2023-03-08T09:59:20;17.13;;;13.40;;
359;SDS011;168;48.872;9.226;2023-03-08T10:01:54;18.67;;;14.30;;
359;SDS011;168;48.872;9.226;2023-03-08T10:07:26;15.63;;;13.60;;
359;SDS011;168;48.872;9.226;2023-03-08T10:10:08;17.73;;;13.67;;
359;SDS011;168;48.872;9.226;2023-03-08T10:12:45;18.10;;;14.03;;
359;SDS011;168;48.872;9.226;2023-03-08T10:15:23;17.97;;;14.53;;
359;SDS011;168;48.872;9.226;2023-03-08T10:17:54;15.47;;;13.80;;
359;SDS011;168;48.872;9.226;2023-03-08T10:20:26;16.70;;;13.10;;
359;SDS011;168;48.872;9.226;2023-03-08T10:22:56;16.43;;;11.80;;
359;SDS011;168;48.872;9.226;2023-03-08T10:25:25;14.37;;;11.70;;
359;SDS011;168;48.872;9.226;2023-03-08T10:27:56;16.27;;;10.30;;
359;SDS011;168;48.872;9.226;2023-03-08T10:30:34;14.17;;;11.37;;
359;SDS011;168;48.872;9.226;2023-03-08T10:33:03;12.47;;;10.33;;
359;SDS011;168;48.872;9.226;2023-03-08T10:35:34;13.93;;;11.20;;
359;SDS011;168;48.872;9.226;2023-03-08T10:38:03;15.30;;;11.83;;
359;SDS011;168;48.872;9.226;2023-03-08T10:40:30;12.80;;;10.80;;
359;SDS011;168;48.872;9.226;2023-03-08T10:42:59;12.93;;;10.50;;
359;SDS011;168;48.872;9.226;2023-03-08T10:45:31;12.07;;;9.77;;
359;SDS011;168;48.872;9.226;2023-03-08T10:47:59;13.03;;;10.00;;
359;SDS011;168;48.872;9.226;2023-03-08T10:50:28;11.90;;;10.23;;
359;SDS011;168;48.872;9.226;2023-03-08T10:53:07;10.87;;;8.57;;
359;SDS011;168;48.872;9.226;2023-03-08T10:55:41;11.23;;;9.20;;
359;SDS011;168;48.872;9.226;2023-03-08T10:58:25;5.60;;;5.10;;
359;SDS011;168;48.872;9.226;2023-03-08T11:00:57;5.30;;;4.10;;
359;SDS011;168;48.872;9.226;2023-03-08T11:03:26;5.40;;;3.63;;
359;SDS011;168;48.872;9.226;2023-03-08T11:05:55;5.03;;;4.60;;
359;SDS011;168;48.872;9.226;2023-03-08T11:08:25;3.97;;;3.40;;
359;SDS011;168;48.872;9.226;2023-03-08T11:11:04;4.33;;;3.93;;
359;SDS011;168;48.872;9.226;2023-03-08T11:13:35;4.37;;;3.90;;
359;SDS011;168;48.872;9.226;2023-03-08T11:16:10;5.70;;;3.63;;
359;SDS011;168;48.872;9.226;2023-03-08T11:18:50;5.60;;;4.43;;
359;SDS011;168;48.872;9.226;2023-03-08T11:21:25;3.20;;;2.40;;
359;SDS011;168;48.872;9.226;2023-03-08T11:24:02;2.60;;;2.40;;
359;SDS011;168;48.872;9.226;2023-03-08T11:26:43;2.70;;;2.30;;
359;SDS011;168;48.872;9.226;2023-03-08T11:29:23;2.20;;;2.00;;
359;SDS011;168;48.872;9.226;2023-03-08T11:32:02;4.40;;;2.57;;
359;SDS011;168;48.872;9.226;2023-03-08T11:34:42;2.13;;;1.93;;
359;SDS011;168;48.872;9.226;2023-03-08T11:37:20;1.53;;;1.40;;
359;SDS011;168;48.872;9.226;2023-03-08T11:40:00;1.17;;;1.07;;
359;SDS011;168;48.872;9.226;2023-03-08T11:42:40;1.77;;;1.30;;
359;SDS011;168;48.872;9.226;2023-03-08T11:45:19;1.90;;;1.27;;
359;SDS011;168;48.872;9.226;2023-03-08T11:48:13;1.40;;;1.30;;
359;SDS011;168;48.872;9.226;2023-03-08T11:50:58;1.30;;;1.20;;
359;SDS011;168;48.872;9.226;2023-03-08T11:53:35;1.87;;;1.23;;
359;SDS011;168;48.872;9.226;2023-03-08T11:56:24;1.33;;;0.90;;
359;SDS011;168;48.872;9.226;2023-03-08T11:59:08;2.90;;;1.40;;
359;SDS011;168;48.872;9.226;2023-03-08T12:01:43;1.00;;;0.83;;
359;SDS011;168;48.872;9.226;2023-03-08T12:04:16;0.63;;;0.63;;
359;SDS011;168;48.872;9.226;2023-03-08T12:06:45;1.10;;;1.00;;
359;SDS011;168;48.872;9.226;2023-03-08T12:09:16;2.37;;;1.10;;
359;SDS011;168;48.872;9.226;2023-03-08T12:11:50;1.43;;;0.90;;
359;SDS011;168;48.872;9.226;2023-03-08T12:14:25;0.97;;;0.93;;
359;SDS011;168;48.872;9.226;2023-03-08T12:16:58;1.40;;;1.00;;
359;SDS011;168;48.872;9.226;2023-03-08T12:19:33;0.90;;;0.90;;
359;SDS011;168;48.872;9.226;2023-03-08T12:22:09;1.27;;;0.80;;
359;SDS011;168;48.872;9.226;2023-03-08T12:24:45;1.23;;;1.00;;
359;SDS011;168;48.872;9.226;2023-03-08T12:27:19;2.17;;;1.37;;
359;SDS011;168;48.872;9.226;2023-03-08T12:29:51;1.20;;;1.10;;
359;SDS011;168;48.872;9.226;2023-03-08T12:32:23;1.37;;;0.90;;
359;SDS011;168;48.872;9.226;2023-03-08T12:35:00;1.40;;;1.30;;
359;SDS011;168;48.872;9.226;2023-03-08T12:37:30;1.27;;;1.17;;
359;SDS011;168;48.872;9.226;2023-03-08T12:39:59;1.87;;;1.23;;
359;SDS011;168;48.872;9.226;2023-03-08T12:42:31;1.30;;;1.20;;
359;SDS011;168;48.872;9.226;2023-03-08T12:45:04;1.30;;;1.00;;
359;SDS011;168;48.872;9.226;2023-03-08T12:47:33;1.37;;;1.27;;
359;SDS011;168;48.872;9.226;2023-03-08T12:50:07;1.27;;;1.00;;
359;SDS011;168;48.872;9.226;2023-03-08T12:52:41;1.17;;;0.80;;
359;SDS011;168;48.872;9.226;2023-03-08T12:55:15;1.57;;;1.00;;
359;SDS011;168;48.872;9.226;2023-03-08T12:57:47;1.77;;;1.10;;
359;SDS011;168;48.872;9.226;2023-03-08T13:00:24;1.40;;;1.30;;
359;SDS011;168;48.872;9.226;2023-03-08T13:02:58;1.20;;;1.10;;
359;SDS011;168;48.872;9.226;2023-03-08T13:05:32;1.10;;;1.00;;
359;SDS011;168;48.872;9.226;2023-03-08T13:10:59;1.33;;;1.23;;
359;SDS011;168;48.872;9.226;2023-03-08T13:13:41;1.63;;;1.00;;
359;SDS011;168;48.872;9.226;2023-03-08T13:16:28;1.17;;;0.97;;
359;SDS011;168;48.872;9.226;2023-03-08T13:19:05;1.20;;;0.80;;
359;SDS011;168;48.872;9.226;2023-03-08T13:21:49;3.37;;;1.03;;
359;SDS011;168;48.872;9.226;2023-03-08T13:24:31;2.07;;;1.13;;
359;SDS011;168;48.872;9.226;2023-03-08T13:27:11;2.17;;;1.00;;
359;SDS011;168;48.872;9.226;2023-03-08T13:29:50;1.67;;;1.20;;
359;SDS011;168;48.872;9.226;2023-03-08T13:32:19;2.27;;;1.27;;
359;SDS011;168;48.872;9.226;2023-03-08T13:34:56;1.30;;;1.10;;
359;SDS011;168;48.872;9.226;2023-03-08T13:37:26;3.50;;;1.33;;
359;SDS011;168;48.872;9.226;2023-03-08T13:39:57;1.10;;;0.80;;
359;SDS011;168;48.872;9.226;2023-03-08T13:42:27;1.60;;;0.83;;
359;SDS011;168;48.872;9.226;2023-03-08T13:45:05;1.00;;;0.90;;
359;SDS011;168;48.872;9.226;2023-03-08T13:47:35;1.53;;;0.97;;
359;SDS011;168;48.872;9.226;2023-03-08T13:50:04;1.83;;;0.70;;
359;SDS011;168;48.872;9.226;2023-03-08T13:52:35;0.80;;;0.80;;
359;SDS011;168;48.872;9.226;2023-03-08T13:55:04;0.70;;;0.60;;
359;SDS011;168;48.872;9.226;2023-03-08T13:57:34;2.10;;;1.00;;
359;SDS011;168;48.872;9.226;2023-03-08T14:00:18;1.67;;;1.10;;
359;SDS011;168;48.872;9.226;2023-03-08T14:02:52;1.20;;;0.97;;
359;SDS011;168;48.872;9.226;2023-03-08T14:05:23;1.80;;;1.43;;
359;SDS011;168;48.872;9.226;2023-03-08T14:07:57;1.43;;;0.90;;
359;SDS011;168;48.872;9.226;2023-03-08T14:10:29;1.33;;;1.13;;
359;SDS011;168;48.872;9.226;2023-03-08T14:13:02;1.27;;;1.17;;
359;SDS011;168;48.872;9.226;2023-03-08T14:15:32;1.27;;;1.17;;
359;SDS011;168;48.872;9.226;2023-03-08T14:18:02;1.03;;;0.90;;
359;SDS011;168;48.872;9.226;2023-03-08T14:20:32;1.10;;;0.97;;
359;SDS011;168;48.872;9.226;2023-03-08T14:23:01;1.10;;;1.10;;
359;SDS011;168;48.872;9.226;2023-03-08T14:25:29;0.80;;;0.80;;
359;SDS011;168;48.872;9.226;2023-03-08T14:27:58;1.33;;;1.03;;
359;SDS011;168;48.872;9.226;2023-03-08T14:30:26;0.80;;;0.80;;
359;SDS011;168;48.872;9.226;2023-03-08T14:32:57;0.80;;;0.73;;
359;SDS011;168;48.872;9.226;2023-03-08T14:35:27;0.80;;;0.80;;
359;SDS011;168;48.872;9.226;2023-03-08T14:37:56;1.00;;;1.00;;
359;SDS011;168;48.872;9.226;2023-03-08T14:40:27;1.03;;;0.70;;
359;SDS011;168;48.872;9.226;2023-03-08T14:42:56;0.70;;;0.70;;
359;SDS011;168;48.872;9.226;2023-03-08T14:45:28;0.90;;;0.80;;
359;SDS011;168;48.872;9.226;2023-03-08T14:47:59;0.73;;;0.73;;
359;SDS011;168;48.872;9.226;2023-03-08T14:50:29;1.33;;;0.90;;
359;SDS011;168;48.872;9.226;2023-03-08T14:52:58;0.70;;;0.70;;
359;SDS011;168;48.872;9.226;2023-03-08T14:55:28;0.67;;;0.67;;
359;SDS011;168;48.872;9.226;2023-03-08T14:57:57;1.43;;;0.80;;
359;SDS011;168;48.872;9.226;2023-03-08T15:00:27;0.80;;;0.77;;
359;SDS011;168;48.872;9.226;2023-03-08T15:02:54;0.50;;;0.50;;
359;SDS011;168;48.872;9.226;2023-03-08T15:05:22;0.93;;;0.93;;
359;SDS011;168;48.872;9.226;2023-03-08T15:07:51;0.90;;;0.70;;
359;SDS011;168;48.872;9.226;2023-03-08T15:10:23;1.40;;;0.63;;
359;SDS011;168;48.872;9.226;2023-03-08T15:12:55;0.83;;;0.70;;
359;SDS011;168;48.872;9.226;2023-03-08T15:15:23;1.73;;;0.70;;
359;SDS011;168;48.872;9.226;2023-03-08T15:17:51;0.70;;;0.70;;
359;SDS011;168;48.872;9.226;2023-03-08T15:20:18;0.50;;;0.50;;
359;SDS011;168;48.872;9.226;2023-03-08T15:22:47;0.60;;;0.60;;
359;SDS011;168;48.872;9.226;2023-03-08T15:25:17;1.43;;;0.57;;
359;SDS011;168;48.872;9.226;2023-03-08T15:27:48;2.10;;;0.70;;
359;SDS011;168;48.872;9.226;2023-03-08T15:30:19;0.90;;;0.70;;
359;SDS011;168;48.872;9.226;2023-03-08T15:32:47;0.70;;;0.70;;
359;SDS011;168;48.872;9.226;2023-03-08T15:35:16;0.80;;;0.80;;
359;SDS011;168;48.872;9.226;2023-03-08T15:37:44;0.83;;;0.80;;
359;SDS011;168;48.872;9.226;2023-03-08T15:40:13;2.67;;;0.70;;
359;SDS011;168;48.872;9.226;2023-03-08T15:42:42;0.70;;;0.70;;
359;SDS011;168;48.872;9.226;2023-03-08T15:45:10;0.70;;;0.70;;
359;SDS011;168;48.872;9.226;2023-03-08T15:47:39;0.87;;;0.87;;
359;SDS011;168;48.872;9.226;2023-03-08T15:50:11;1.00;;;0.90;;
359;SDS011;168;48.872;9.226;2023-03-08T15:52:41;1.07;;;1.00;;
359;SDS011;168;48.872;9.226;2023-03-08T15:55:10;2.70;;;1.30;;